Time;durP1;ratioP1;P1;durP2;ratioP2;P2;SDS_P1;SDS_P2;PMS_P1;PMS_P2;Temp;Humidity;BMP_temperature;BMP_pressure;BME280_temperature;BME280_humidity;BME280_pressure;Samples;Min_cycle;Max_cycle;Signal;HPM_P1;HPM_P2
2021/06/11 00:01:38;;;;;;;11.40;10.07;;;;;;;;;;5115071;28;20538;-74
2021/06/11 00:04:05;;;;;;;11.10;10.13;;;;;;;;;;5114466;28;20802;-74
2021/06/11 00:06:33;;;;;;;11.87;10.87;;;;;;;;;;5114748;28;20455;-74
2021/06/11 00:09:00;;;;;;;11.10;10.10;;;;;;;;;;5115753;28;20526;-74
2021/06/11 00:11:27;;;;;;;11.63;10.53;;;;;;;;;;5114568;28;20555;-74
2021/06/11 00:13:53;;;;;;;11.20;10.03;;;;;;;;;;5114607;28;20435;-75
2021/06/11 00:16:20;;;;;;;11.63;10.73;;;;;;;;;;5114788;28;20436;-74
2021/06/11 00:18:47;;;;;;;10.93;9.93;;;;;;;;;;5114216;28;20439;-74
2021/06/11 00:21:14;;;;;;;10.70;9.60;;;;;;;;;;5114468;28;20451;-75
2021/06/11 00:23:42;;;;;;;12.23;9.27;;;;;;;;;;5114134;28;20968;-75
2021/06/11 00:26:09;;;;;;;12.77;10.40;;;;;;;;;;5114116;28;20517;-75
2021/06/11 00:28:35;;;;;;;10.20;9.20;;;;;;;;;;5114474;28;20959;-74
2021/06/11 00:31:02;;;;;;;9.77;8.87;;;;;;;;;;5114751;28;20478;-74
2021/06/11 00:33:29;;;;;;;12.30;10.40;;;;;;;;;;5114020;28;20990;-74
2021/06/11 00:35:55;;;;;;;10.90;9.80;;;;;;;;;;5114400;28;20450;-74
2021/06/11 00:38:22;;;;;;;13.83;10.00;;;;;;;;;;5114525;28;20545;-74
2021/06/11 00:40:50;;;;;;;10.77;9.67;;;;;;;;;;5113835;28;20945;-74
2021/06/11 00:43:17;;;;;;;12.20;10.97;;;;;;;;;;5114169;28;20440;-74
2021/06/11 00:45:45;;;;;;;10.97;9.90;;;;;;;;;;5114197;28;20798;-74
2021/06/11 00:48:12;;;;;;;9.57;8.70;;;;;;;;;;5113809;28;20435;-74
2021/06/11 00:50:39;;;;;;;11.30;9.43;;;;;;;;;;5114038;28;20478;-74
2021/06/11 00:53:08;;;;;;;10.80;9.77;;;;;;;;;;5114579;28;20471;-74
2021/06/11 00:55:35;;;;;;;11.20;10.20;;;;;;;;;;5113766;28;20443;-74
2021/06/11 00:58:03;;;;;;;10.40;9.30;;;;;;;;;;5114055;28;20450;-74
2021/06/11 01:00:30;;;;;;;10.30;9.30;;;;;;;;;;5113722;28;20445;-74
2021/06/11 01:02:57;;;;;;;11.53;10.33;;;;;;;;;;5113923;28;20526;-74
2021/06/11 01:05:23;;;;;;;11.50;10.30;;;;;;;;;;5113774;28;20439;-74
2021/06/11 01:07:51;;;;;;;11.07;10.03;;;;;;;;;;5113945;28;20474;-74
2021/06/11 01:10:18;;;;;;;10.83;9.87;;;;;;;;;;5113587;28;20445;-74
2021/06/11 01:12:46;;;;;;;10.80;9.80;;;;;;;;;;5113574;28;20923;-74
2021/06/11 01:15:14;;;;;;;10.73;9.63;;;;;;;;;;5113333;28;20439;-74
2021/06/11 01:17:42;;;;;;;10.63;9.57;;;;;;;;;;5113541;28;20439;-74
2021/06/11 01:20:10;;;;;;;10.50;9.60;;;;;;;;;;5113591;28;20441;-74
2021/06/11 01:22:38;;;;;;;12.10;10.27;;;;;;;;;;5114052;28;20484;-74
2021/06/11 01:25:09;;;;;;;12.30;11.20;;;;;;;;;;5114115;28;20498;-74
2021/06/11 01:27:38;;;;;;;12.67;11.47;;;;;;;;;;5113709;28;20558;-73
2021/06/11 01:30:06;;;;;;;10.87;9.90;;;;;;;;;;5113683;28;20442;-73
2021/06/11 01:32:34;;;;;;;11.80;10.43;;;;;;;;;;5114204;28;20434;-73
2021/06/11 01:35:03;;;;;;;11.93;9.87;;;;;;;;;;5113506;28;20423;-73
2021/06/11 01:37:32;;;;;;;20.13;11.53;;;;;;;;;;5113241;28;20454;-73
2021/06/11 01:40:02;;;;;;;12.30;10.20;;;;;;;;;;5113939;28;20928;-73
2021/06/11 01:42:30;;;;;;;12.10;9.97;;;;;;;;;;5113379;28;20478;-73
2021/06/11 01:44:58;;;;;;;12.07;10.90;;;;;;;;;;5113376;28;20444;-74
2021/06/11 01:47:26;;;;;;;15.30;11.23;;;;;;;;;;5113470;28;20458;-74
2021/06/11 01:49:53;;;;;;;13.90;11.27;;;;;;;;;;5113550;28;20445;-74
2021/06/11 01:52:20;;;;;;;12.60;11.30;;;;;;;;;;5115244;28;21095;-73
2021/06/11 01:54:52;;;;;;;14.33;12.30;;;;;;;;;;5117965;28;20467;-73
2021/06/11 01:57:19;;;;;;;15.83;14.33;;;;;;;;;;5116838;28;20514;-73
2021/06/11 01:59:46;;;;;;;13.73;12.40;;;;;;;;;;5117184;28;20450;-74
2021/06/11 02:02:14;;;;;;;13.13;11.80;;;;;;;;;;5117760;28;20587;-74
2021/06/11 02:04:41;;;;;;;14.33;12.73;;;;;;;;;;5116946;28;20880;-74
2021/06/11 02:07:09;;;;;;;17.27;13.47;;;;;;;;;;5116798;28;20434;-73
2021/06/11 02:09:36;;;;;;;14.97;12.83;;;;;;;;;;5116842;28;20443;-74
2021/06/11 02:12:04;;;;;;;14.63;13.23;;;;;;;;;;5117474;28;20470;-73
2021/06/11 02:14:30;;;;;;;14.97;12.73;;;;;;;;;;5116711;28;20443;-74
2021/06/11 02:16:58;;;;;;;17.13;15.33;;;;;;;;;;5116825;28;20971;-74
2021/06/11 02:19:26;;;;;;;16.53;14.23;;;;;;;;;;5116724;28;20487;-74
2021/06/11 02:21:53;;;;;;;16.90;14.50;;;;;;;;;;5116516;28;20457;-74
2021/06/11 02:24:20;;;;;;;19.10;15.97;;;;;;;;;;5116528;28;20447;-74
2021/06/11 02:26:47;;;;;;;18.80;15.80;;;;;;;;;;5116845;28;20463;-74
2021/06/11 02:29:14;;;;;;;17.13;15.33;;;;;;;;;;5116539;28;20909;-74
2021/06/11 02:31:41;;;;;;;17.60;15.73;;;;;;;;;;5116402;28;20486;-74
2021/06/11 02:34:08;;;;;;;21.33;17.03;;;;;;;;;;5116359;28;20446;-74
2021/06/11 02:36:36;;;;;;;19.90;16.73;;;;;;;;;;5116352;28;20451;-74
2021/06/11 02:39:03;;;;;;;22.50;17.27;;;;;;;;;;5116631;28;20517;-74
2021/06/11 02:41:31;;;;;;;19.83;17.97;;;;;;;;;;5116646;28;20928;-74
2021/06/11 02:43:58;;;;;;;20.43;18.20;;;;;;;;;;5116141;28;20558;-74
2021/06/11 02:46:27;;;;;;;23.80;18.53;;;;;;;;;;5115786;28;20940;-74
2021/06/11 02:48:56;;;;;;;22.50;18.43;;;;;;;;;;5115702;28;20453;-78
2021/06/11 02:51:25;;;;;;;25.40;18.60;;;;;;;;;;5116296;28;20475;-74
2021/06/11 02:53:54;;;;;;;24.70;19.37;;;;;;;;;;5115913;28;20487;-74
2021/06/11 02:56:23;;;;;;;22.87;20.03;;;;;;;;;;5115860;28;20474;-74
2021/06/11 02:58:51;;;;;;;22.47;19.30;;;;;;;;;;5115896;28;20801;-74
2021/06/11 03:01:18;;;;;;;23.80;19.70;;;;;;;;;;5115627;28;20472;-74
2021/06/11 03:03:45;;;;;;;21.57;18.43;;;;;;;;;;5114750;28;20530;-74
2021/06/11 03:06:13;;;;;;;24.67;21.60;;;;;;;;;;5115805;28;20445;-74
2021/06/11 03:08:45;;;;;;;22.50;19.17;;;;;;;;;;5115951;28;20834;-74
2021/06/11 03:11:19;;;;;;;22.93;19.30;;;;;;;;;;5115366;28;20553;-75
2021/06/11 03:13:47;;;;;;;26.50;21.20;;;;;;;;;;5115432;28;20423;-76
2021/06/11 03:16:14;;;;;;;23.80;20.33;;;;;;;;;;5115305;28;20439;-76
2021/06/11 03:18:42;;;;;;;23.93;20.17;;;;;;;;;;5115844;28;20483;-76
2021/06/11 03:21:13;;;;;;;22.80;19.47;;;;;;;;;;5115467;28;20975;-76
2021/06/11 03:23:43;;;;;;;23.60;20.37;;;;;;;;;;5115863;28;20419;-76
2021/06/11 03:26:12;;;;;;;22.40;20.00;;;;;;;;;;5115403;28;20439;-76
2021/06/11 03:28:44;;;;;;;26.20;21.97;;;;;;;;;;5116085;28;20955;-76
2021/06/11 03:31:12;;;;;;;23.27;20.83;;;;;;;;;;5114986;28;20463;-76
2021/06/11 03:33:40;;;;;;;23.97;21.27;;;;;;;;;;5115438;28;20442;-76
2021/06/11 03:36:11;;;;;;;22.20;19.77;;;;;;;;;;5114913;28;20443;-77
2021/06/11 03:38:38;;;;;;;25.47;21.27;;;;;;;;;;5115166;28;20449;-76
2021/06/11 03:41:05;;;;;;;26.20;21.77;;;;;;;;;;5115140;28;20450;-76
2021/06/11 03:43:32;;;;;;;22.43;19.90;;;;;;;;;;5115011;28;20467;-76
2021/06/11 03:46:01;;;;;;;24.00;20.60;;;;;;;;;;5115417;28;20786;-76
2021/06/11 03:48:30;;;;;;;23.00;20.10;;;;;;;;;;5114698;28;20439;-76
2021/06/11 03:50:57;;;;;;;26.03;22.13;;;;;;;;;;5114927;28;20474;-75
2021/06/11 03:53:25;;;;;;;28.33;21.20;;;;;;;;;;5115444;28;20862;-76
2021/06/11 03:55:56;;;;;;;25.27;18.70;;;;;;;;;;5114600;28;20442;-76
2021/06/11 03:58:24;;;;;;;23.87;20.70;;;;;;;;;;5114624;28;20517;-75
2021/06/11 04:00:51;;;;;;;27.20;20.20;;;;;;;;;;5114324;28;20530;-74
2021/06/11 04:03:19;;;;;;;30.70;23.67;;;;;;;;;;5114843;28;20946;-74
2021/06/11 04:05:46;;;;;;;26.83;21.73;;;;;;;;;;5114430;28;20439;-75
2021/06/11 04:08:16;;;;;;;24.07;21.47;;;;;;;;;;5114753;28;20446;-75
2021/06/11 04:10:45;;;;;;;24.00;20.50;;;;;;;;;;5115037;28;20500;-75
2021/06/11 04:13:14;;;;;;;23.10;19.60;;;;;;;;;;5114574;28;20488;-75
2021/06/11 04:15:42;;;;;;;30.30;21.23;;;;;;;;;;5114155;28;20465;-75
2021/06/11 04:18:11;;;;;;;26.30;21.93;;;;;;;;;;5114900;28;20469;-74
2021/06/11 04:20:39;;;;;;;27.80;21.77;;;;;;;;;;5114569;28;20511;-74
2021/06/11 04:23:07;;;;;;;25.60;20.30;;;;;;;;;;5114432;28;20510;-74
2021/06/11 04:25:35;;;;;;;26.20;22.87;;;;;;;;;;5113968;28;20529;-74
2021/06/11 04:28:03;;;;;;;28.00;22.00;;;;;;;;;;5114223;28;20523;-74
2021/06/11 04:30:30;;;;;;;26.33;23.23;;;;;;;;;;5122403;27;20450;-74
2021/06/11 04:32:57;;;;;;;29.30;23.63;;;;;;;;;;5134602;27;20583;-74
2021/06/11 04:35:25;;;;;;;29.07;23.90;;;;;;;;;;5134997;27;20854;-74
2021/06/11 04:37:53;;;;;;;28.37;23.63;;;;;;;;;;5134658;27;20438;-74
2021/06/11 04:40:20;;;;;;;32.50;23.80;;;;;;;;;;5134462;27;20578;-74
2021/06/11 04:42:46;;;;;;;29.40;23.90;;;;;;;;;;5134678;27;20554;-74
2021/06/11 04:45:13;;;;;;;30.40;24.50;;;;;;;;;;5134306;27;20446;-74
2021/06/11 04:47:40;;;;;;;26.60;23.70;;;;;;;;;;5134612;27;20497;-74
2021/06/11 04:50:07;;;;;;;27.40;24.40;;;;;;;;;;5134279;27;20470;-74
2021/06/11 04:52:34;;;;;;;27.87;23.17;;;;;;;;;;5134197;27;20481;-74
2021/06/11 04:55:02;;;;;;;31.03;26.13;;;;;;;;;;5134239;27;20469;-74
2021/06/11 04:57:29;;;;;;;26.50;23.50;;;;;;;;;;5134604;28;20519;-75
2021/06/11 04:59:55;;;;;;;26.83;23.40;;;;;;;;;;5122910;28;20470;-75
2021/06/11 05:02:22;;;;;;;30.77;24.90;;;;;;;;;;5114007;28;20533;-73
2021/06/11 05:04:49;;;;;;;34.57;23.73;;;;;;;;;;5114416;28;20975;-73
2021/06/11 05:07:15;;;;;;;28.87;24.60;;;;;;;;;;5114200;28;20512;-74
2021/06/11 05:09:42;;;;;;;25.17;22.47;;;;;;;;;;5113825;28;20543;-75
2021/06/11 05:12:11;;;;;;;29.70;23.63;;;;;;;;;;5114629;28;20554;-75
2021/06/11 05:14:38;;;;;;;34.20;24.67;;;;;;;;;;5113957;28;20529;-75
2021/06/11 05:17:04;;;;;;;35.23;24.87;;;;;;;;;;5113608;28;20439;-73
2021/06/11 05:19:31;;;;;;;30.90;25.13;;;;;;;;;;5114621;28;20527;-74
2021/06/11 05:21:58;;;;;;;34.50;25.60;;;;;;;;;;5113970;28;20443;-74
2021/06/11 05:24:25;;;;;;;35.67;25.50;;;;;;;;;;5113806;28;20493;-73
2021/06/11 05:26:52;;;;;;;37.87;25.83;;;;;;;;;;5115849;28;20554;-73
2021/06/11 05:29:20;;;;;;;28.63;22.57;;;;;;;;;;5117520;28;20488;-73
2021/06/11 05:31:46;;;;;;;28.13;22.70;;;;;;;;;;5117475;28;20690;-73
2021/06/11 05:34:13;;;;;;;32.10;21.47;;;;;;;;;;5117681;28;20468;-73
2021/06/11 05:36:40;;;;;;;30.37;23.50;;;;;;;;;;5118425;28;20439;-74
2021/06/11 05:39:07;;;;;;;28.57;24.30;;;;;;;;;;5117370;28;20537;-73
2021/06/11 05:41:33;;;;;;;28.60;22.50;;;;;;;;;;5117333;28;20453;-73
2021/06/11 05:44:00;;;;;;;25.70;22.30;;;;;;;;;;5117880;28;20445;-73
2021/06/11 05:46:28;;;;;;;26.53;23.60;;;;;;;;;;5117885;28;20435;-73
2021/06/11 05:48:55;;;;;;;29.47;23.40;;;;;;;;;;5118254;28;20439;-74
2021/06/11 05:51:22;;;;;;;27.67;23.30;;;;;;;;;;5118245;28;20471;-73
2021/06/11 05:53:49;;;;;;;26.10;21.70;;;;;;;;;;5117327;28;20446;-73
2021/06/11 05:56:15;;;;;;;28.80;22.60;;;;;;;;;;5117122;28;20525;-73
2021/06/11 05:58:42;;;;;;;25.10;21.00;;;;;;;;;;5117479;28;20510;-73
2021/06/11 06:01:09;;;;;;;28.67;21.90;;;;;;;;;;5117845;28;20443;-73
2021/06/11 06:03:37;;;;;;;30.03;23.27;;;;;;;;;;5116914;28;20491;-74
2021/06/11 06:06:04;;;;;;;30.33;24.00;;;;;;;;;;5117530;28;20435;-73
2021/06/11 06:08:30;;;;;;;28.83;22.20;;;;;;;;;;5117001;28;20541;-73
2021/06/11 06:10:57;;;;;;;24.30;21.70;;;;;;;;;;5116866;28;20988;-74
2021/06/11 06:13:24;;;;;;;24.73;20.73;;;;;;;;;;5117250;28;20494;-73
2021/06/11 06:15:50;;;;;;;26.63;20.80;;;;;;;;;;5116749;28;21093;-73
2021/06/11 06:18:17;;;;;;;34.13;20.03;;;;;;;;;;5116979;28;20511;-73
2021/06/11 06:20:46;;;;;;;22.17;19.90;;;;;;;;;;5116929;28;20439;-73
2021/06/11 06:23:13;;;;;;;25.17;19.50;;;;;;;;;;5116341;28;20450;-73
2021/06/11 06:25:40;;;;;;;24.80;21.13;;;;;;;;;;5116367;28;20539;-73
2021/06/11 06:28:06;;;;;;;24.43;19.30;;;;;;;;;;5116380;28;20563;-73
2021/06/11 06:30:33;;;;;;;27.57;18.70;;;;;;;;;;5116897;28;20849;-73
2021/06/11 06:33:00;;;;;;;24.77;19.80;;;;;;;;;;5116718;28;20482;-73
2021/06/11 06:35:27;;;;;;;28.50;20.07;;;;;;;;;;5116525;28;20440;-73
2021/06/11 06:37:55;;;;;;;24.83;19.47;;;;;;;;;;5115866;28;20523;-73
2021/06/11 06:40:22;;;;;;;24.67;18.93;;;;;;;;;;5116319;28;20471;-73
2021/06/11 06:42:48;;;;;;;20.43;17.33;;;;;;;;;;5116140;28;21050;-73
2021/06/11 06:45:19;;;;;;;20.63;17.33;;;;;;;;;;5116553;28;20443;-73
2021/06/11 06:47:46;;;;;;;20.73;17.57;;;;;;;;;;5116769;28;20433;-73
2021/06/11 06:50:13;;;;;;;19.60;17.43;;;;;;;;;;5116084;28;20590;-74
2021/06/11 06:52:40;;;;;;;27.13;18.20;;;;;;;;;;5115866;28;20507;-73
2021/06/11 06:55:09;;;;;;;21.40;18.13;;;;;;;;;;5116289;28;20514;-73
2021/06/11 06:57:35;;;;;;;21.30;18.60;;;;;;;;;;5116008;28;20937;-73
2021/06/11 07:00:03;;;;;;;18.60;16.57;;;;;;;;;;5116330;28;20452;-73
2021/06/11 07:02:29;;;;;;;18.17;15.20;;;;;;;;;;5115958;28;20507;-74
2021/06/11 07:04:56;;;;;;;20.73;16.50;;;;;;;;;;5116149;28;20531;-73
2021/06/11 07:07:23;;;;;;;23.33;16.37;;;;;;;;;;5116087;28;20441;-73
2021/06/11 07:09:49;;;;;;;19.87;17.10;;;;;;;;;;5115954;28;20449;-73
2021/06/11 07:12:17;;;;;;;24.93;17.57;;;;;;;;;;5115609;28;20969;-72
2021/06/11 07:14:44;;;;;;;21.50;17.10;;;;;;;;;;5116036;28;20880;-73
2021/06/11 07:17:11;;;;;;;21.33;16.23;;;;;;;;;;5116481;28;20967;-73
2021/06/11 07:19:38;;;;;;;21.10;15.50;;;;;;;;;;5117730;28;20446;-73
2021/06/11 07:22:07;;;;;;;20.80;17.80;;;;;;;;;;5116005;28;20534;-73
2021/06/11 07:24:34;;;;;;;18.40;16.50;;;;;;;;;;5115960;28;20444;-73
2021/06/11 07:27:00;;;;;;;19.90;17.80;;;;;;;;;;5115290;28;20969;-73
2021/06/11 07:29:28;;;;;;;19.63;17.07;;;;;;;;;;5115138;28;20521;-73
2021/06/11 07:31:55;;;;;;;20.63;17.60;;;;;;;;;;5115219;28;20484;-73
2021/06/11 07:34:22;;;;;;;19.73;17.63;;;;;;;;;;5114981;28;20446;-73
2021/06/11 07:36:48;;;;;;;18.90;15.67;;;;;;;;;;5115267;28;20455;-72
2021/06/11 07:39:17;;;;;;;21.47;16.47;;;;;;;;;;5115130;28;20935;-73
2021/06/11 07:41:44;;;;;;;18.00;15.73;;;;;;;;;;5114894;28;20452;-73
2021/06/11 07:44:11;;;;;;;16.73;15.00;;;;;;;;;;5115206;28;20438;-73
2021/06/11 07:46:39;;;;;;;20.00;15.33;;;;;;;;;;5115220;28;20522;-73
2021/06/11 07:49:09;;;;;;;15.57;14.07;;;;;;;;;;5114636;28;20442;-74
2021/06/11 07:51:36;;;;;;;22.10;15.63;;;;;;;;;;5115033;28;20570;-72
2021/06/11 07:54:02;;;;;;;21.43;14.87;;;;;;;;;;5114753;28;20448;-72
2021/06/11 07:56:29;;;;;;;17.70;14.50;;;;;;;;;;5115802;28;20493;-72
2021/06/11 07:58:56;;;;;;;14.70;13.17;;;;;;;;;;5117298;28;20498;-73
2021/06/11 08:01:24;;;;;;;15.10;12.10;;;;;;;;;;5115353;28;20526;-72
2021/06/11 08:03:52;;;;;;;15.90;13.73;;;;;;;;;;5114899;28;20484;-73
2021/06/11 08:06:19;;;;;;;14.40;12.90;;;;;;;;;;5114788;28;20533;-73
2021/06/11 08:08:46;;;;;;;11.83;10.73;;;;;;;;;;5114689;28;20537;-73
2021/06/11 08:11:13;;;;;;;12.43;10.57;;;;;;;;;;5114703;28;20480;-73
2021/06/11 08:13:39;;;;;;;11.83;9.93;;;;;;;;;;5114604;28;20449;-72
2021/06/11 08:16:06;;;;;;;12.57;9.10;;;;;;;;;;5114235;28;20439;-72
2021/06/11 08:18:33;;;;;;;11.40;9.37;;;;;;;;;;5114642;28;20951;-73
2021/06/11 08:21:01;;;;;;;13.33;11.20;;;;;;;;;;5114499;28;20447;-73
2021/06/11 08:23:27;;;;;;;10.37;9.37;;;;;;;;;;5114680;28;20446;-74
2021/06/11 08:25:54;;;;;;;12.17;10.80;;;;;;;;;;5114036;28;20438;-72
2021/06/11 08:28:21;;;;;;;11.40;10.20;;;;;;;;;;5114793;28;20555;-72
2021/06/11 08:30:48;;;;;;;17.27;12.30;;;;;;;;;;5114146;28;20954;-73
2021/06/11 08:33:14;;;;;;;15.07;10.83;;;;;;;;;;5114277;28;20477;-73
2021/06/11 08:35:41;;;;;;;13.67;11.13;;;;;;;;;;5114261;28;20439;-73
2021/06/11 08:38:09;;;;;;;12.03;9.80;;;;;;;;;;5114179;28;20518;-72
2021/06/11 08:40:36;;;;;;;17.10;10.50;;;;;;;;;;5113942;28;20432;-72
2021/06/11 08:43:03;;;;;;;16.30;9.80;;;;;;;;;;5113965;28;20442;-72
2021/06/11 08:45:29;;;;;;;21.17;13.53;;;;;;;;;;5114298;28;20588;-73
2021/06/11 08:47:58;;;;;;;18.23;9.53;;;;;;;;;;5114720;28;20791;-73
2021/06/11 08:50:27;;;;;;;13.10;9.10;;;;;;;;;;5114230;28;20441;-72
2021/06/11 08:52:54;;;;;;;12.47;10.57;;;;;;;;;;5115187;28;20475;-72
2021/06/11 08:55:22;;;;;;;14.27;9.20;;;;;;;;;;5114850;28;20446;-72
2021/06/11 08:57:49;;;;;;;15.00;12.50;;;;;;;;;;5114965;28;20439;-72
2021/06/11 09:00:16;;;;;;;15.63;11.23;;;;;;;;;;5114048;28;20512;-73
2021/06/11 09:03:03;;;;;;;15.47;11.03;;;;;;;;;;5113230;28;20431;-72
2021/06/11 09:05:30;;;;;;;12.90;11.00;;;;;;;;;;5113740;28;20947;-73
2021/06/11 09:08:11;;;;;;;13.87;10.93;;;;;;;;;;5113876;28;20504;-73
2021/06/11 09:10:39;;;;;;;15.13;11.77;;;;;;;;;;5114559;28;20967;-73
2021/06/11 09:13:06;;;;;;;21.70;12.23;;;;;;;;;;5113449;28;20474;-72
2021/06/11 09:15:33;;;;;;;12.33;10.87;;;;;;;;;;5113920;28;20459;-72
2021/06/11 09:17:59;;;;;;;17.93;14.90;;;;;;;;;;5114209;28;20903;-73
2021/06/11 09:20:28;;;;;;;21.33;13.90;;;;;;;;;;5113935;28;20475;-73
2021/06/11 09:22:56;;;;;;;19.60;16.47;;;;;;;;;;5113726;28;20959;-72
2021/06/11 09:25:27;;;;;;;17.83;15.90;;;;;;;;;;5113810;28;20446;-73
2021/06/11 09:27:55;;;;;;;22.13;14.30;;;;;;;;;;5113706;28;20497;-73
2021/06/11 09:30:23;;;;;;;19.43;15.07;;;;;;;;;;5113576;28;20529;-73
2021/06/11 09:32:57;;;;;;;16.43;12.90;;;;;;;;;;5113585;28;20480;-73
2021/06/11 09:35:31;;;;;;;16.93;14.33;;;;;;;;;;5116126;28;20453;-72
2021/06/11 09:38:19;;;;;;;19.50;15.27;;;;;;;;;;5117881;28;20809;-73
2021/06/11 09:40:47;;;;;;;17.17;13.83;;;;;;;;;;5117425;28;20423;-72
2021/06/11 09:43:15;;;;;;;20.30;16.17;;;;;;;;;;5114249;28;20443;-73
2021/06/11 09:45:42;;;;;;;17.57;13.63;;;;;;;;;;5116165;28;20536;-73
2021/06/11 09:48:19;;;;;;;16.37;14.60;;;;;;;;;;5114673;28;20421;-73
2021/06/11 09:50:49;;;;;;;15.13;12.63;;;;;;;;;;5112934;28;20472;-72
2021/06/11 09:53:16;;;;;;;20.90;14.90;;;;;;;;;;5112575;28;20463;-73
2021/06/11 09:55:45;;;;;;;16.87;12.77;;;;;;;;;;5112508;28;20434;-73
2021/06/11 09:58:14;;;;;;;21.87;15.20;;;;;;;;;;5112489;28;20439;-72
2021/06/11 10:00:49;;;;;;;17.20;13.70;;;;;;;;;;5113256;28;20463;-72
2021/06/11 10:03:17;;;;;;;19.60;11.17;;;;;;;;;;5113869;28;20476;-72
2021/06/11 10:05:44;;;;;;;23.93;13.50;;;;;;;;;;5113904;28;20503;-72
2021/06/11 10:08:11;;;;;;;12.33;10.57;;;;;;;;;;5113038;28;20935;-72
2021/06/11 10:10:38;;;;;;;15.33;10.80;;;;;;;;;;5113601;28;20438;-73
2021/06/11 10:13:05;;;;;;;18.40;13.60;;;;;;;;;;5114848;28;20512;-74
2021/06/11 10:15:32;;;;;;;14.17;12.17;;;;;;;;;;5117267;28;20439;-73
2021/06/11 10:18:02;;;;;;;20.90;12.13;;;;;;;;;;5117830;28;20491;-72
2021/06/11 10:20:29;;;;;;;12.60;10.83;;;;;;;;;;5117522;28;20448;-73
2021/06/11 10:22:55;;;;;;;15.63;10.60;;;;;;;;;;5117583;28;20997;-72
2021/06/11 10:25:23;;;;;;;13.13;11.77;;;;;;;;;;5117812;28;20441;-72
2021/06/11 10:27:50;;;;;;;11.87;10.67;;;;;;;;;;5117278;28;20500;-72
2021/06/11 10:30:17;;;;;;;14.23;9.10;;;;;;;;;;5116733;28;20920;-72
2021/06/11 10:32:46;;;;;;;15.63;9.97;;;;;;;;;;5117427;28;20475;-72
2021/06/11 10:35:14;;;;;;;12.37;11.07;;;;;;;;;;5116389;28;20503;-73
2021/06/11 10:37:42;;;;;;;10.83;9.83;;;;;;;;;;5118026;28;20439;-72
2021/06/11 10:40:16;;;;;;;12.20;8.77;;;;;;;;;;5116177;28;20484;-72
2021/06/11 10:42:43;;;;;;;11.17;10.03;;;;;;;;;;5116655;28;20439;-72
2021/06/11 10:45:12;;;;;;;10.70;9.20;;;;;;;;;;5116509;28;20457;-72
2021/06/11 10:47:39;;;;;;;10.30;9.30;;;;;;;;;;5116676;28;20474;-72
2021/06/11 10:50:11;;;;;;;11.37;10.27;;;;;;;;;;5116297;28;20520;-72
2021/06/11 10:52:41;;;;;;;11.93;10.70;;;;;;;;;;5116075;28;20476;-72
2021/06/11 10:55:32;;;;;;;10.70;9.60;;;;;;;;;;5116124;28;20464;-72
2021/06/11 10:58:19;;;;;;;11.03;9.17;;;;;;;;;;5096040;28;20451;-72
2021/06/11 11:00:46;;;;;;;10.47;8.87;;;;;;;;;;5110127;28;21016;-72
2021/06/11 11:03:24;;;;;;;12.20;11.00;;;;;;;;;;5115889;28;21008;-72
2021/06/11 11:05:51;;;;;;;9.60;8.50;;;;;;;;;;5116317;28;20510;-72
2021/06/11 11:08:20;;;;;;;10.50;7.90;;;;;;;;;;5115645;28;20508;-72
2021/06/11 11:10:47;;;;;;;8.00;7.20;;;;;;;;;;5116312;28;20448;-72
2021/06/11 11:13:14;;;;;;;7.77;6.80;;;;;;;;;;5115670;28;20480;-73
2021/06/11 11:15:42;;;;;;;8.40;7.60;;;;;;;;;;5116670;28;20479;-72
2021/06/11 11:18:10;;;;;;;9.50;8.50;;;;;;;;;;5115691;28;20440;-72
2021/06/11 11:20:37;;;;;;;8.73;7.83;;;;;;;;;;5115681;28;20481;-72
2021/06/11 11:23:05;;;;;;;9.53;7.67;;;;;;;;;;5115589;28;20532;-72
2021/06/11 11:25:34;;;;;;;6.97;6.27;;;;;;;;;;5114816;28;20450;-73
2021/06/11 11:28:01;;;;;;;8.00;7.30;;;;;;;;;;5115598;28;20468;-72
2021/06/11 11:30:28;;;;;;;6.87;6.30;;;;;;;;;;5115709;28;20854;-72
2021/06/11 11:32:55;;;;;;;10.20;7.60;;;;;;;;;;5115829;28;20479;-72
2021/06/11 11:35:22;;;;;;;9.07;6.77;;;;;;;;;;5115359;28;20440;-72
2021/06/11 11:37:51;;;;;;;7.63;6.93;;;;;;;;;;5116082;28;20452;-72
2021/06/11 11:40:19;;;;;;;7.83;6.63;;;;;;;;;;5115196;28;20919;-72
2021/06/11 11:42:47;;;;;;;8.57;7.20;;;;;;;;;;5115056;28;20445;-72
2021/06/11 11:45:14;;;;;;;6.93;6.33;;;;;;;;;;5115261;28;20439;-72
2021/06/11 11:47:42;;;;;;;5.50;5.10;;;;;;;;;;5115122;28;20476;-72
2021/06/11 11:50:09;;;;;;;5.93;5.20;;;;;;;;;;5115476;28;20410;-73
2021/06/11 11:52:36;;;;;;;5.53;4.20;;;;;;;;;;5115170;28;20478;-73
2021/06/11 11:55:04;;;;;;;5.40;4.90;;;;;;;;;;5115174;28;20435;-72
2021/06/11 11:57:31;;;;;;;4.90;4.50;;;;;;;;;;5115030;28;20441;-72
2021/06/11 11:59:59;;;;;;;5.77;5.00;;;;;;;;;;5115200;28;20483;-72
2021/06/11 12:02:27;;;;;;;5.30;4.23;;;;;;;;;;5114862;28;20451;-72
2021/06/11 12:04:54;;;;;;;6.80;5.60;;;;;;;;;;5115014;28;20444;-73
2021/06/11 12:07:21;;;;;;;5.43;4.93;;;;;;;;;;5114376;28;20525;-73
2021/06/11 12:09:48;;;;;;;4.93;4.47;;;;;;;;;;5115731;28;20474;-72
2021/06/11 12:12:14;;;;;;;4.00;3.70;;;;;;;;;;5114654;28;20479;-72
2021/06/11 12:14:41;;;;;;;4.43;4.00;;;;;;;;;;5114741;28;20837;-72
2021/06/11 12:17:09;;;;;;;4.03;3.70;;;;;;;;;;5114490;28;20576;-73
2021/06/11 12:19:36;;;;;;;5.07;4.37;;;;;;;;;;5114480;28;20534;-72
2021/06/11 12:22:03;;;;;;;4.30;3.30;;;;;;;;;;5114063;28;20441;-72
2021/06/11 12:24:30;;;;;;;2.83;2.63;;;;;;;;;;5114437;28;20469;-72
2021/06/11 12:26:56;;;;;;;3.40;2.87;;;;;;;;;;5114039;28;20474;-73
2021/06/11 12:29:23;;;;;;;2.40;2.20;;;;;;;;;;5114798;28;20515;-72
2021/06/11 12:31:50;;;;;;;2.97;2.77;;;;;;;;;;5114052;28;20481;-72
2021/06/11 12:34:18;;;;;;;3.27;3.00;;;;;;;;;;5114297;28;20525;-72
2021/06/11 12:36:45;;;;;;;3.93;3.40;;;;;;;;;;5113240;28;20443;-72
2021/06/11 12:39:12;;;;;;;3.63;2.70;;;;;;;;;;5114403;28;20424;-72
2021/06/11 12:41:38;;;;;;;3.50;3.20;;;;;;;;;;5114306;28;20539;-72
2021/06/11 12:44:15;;;;;;;6.37;3.53;;;;;;;;;;5113813;28;20998;-73
2021/06/11 12:46:43;;;;;;;5.70;3.30;;;;;;;;;;5114111;28;20480;-74
2021/06/11 12:49:09;;;;;;;8.73;3.60;;;;;;;;;;5114281;28;20510;-71
2021/06/11 12:51:38;;;;;;;3.43;3.10;;;;;;;;;;5114429;28;20445;-71
2021/06/11 12:54:05;;;;;;;3.60;3.30;;;;;;;;;;5113831;28;20469;-71
2021/06/11 12:56:31;;;;;;;3.60;3.10;;;;;;;;;;5114105;28;20497;-71
2021/06/11 12:58:58;;;;;;;4.13;3.73;;;;;;;;;;5114303;28;20452;-71
2021/06/11 13:01:25;;;;;;;3.50;3.17;;;;;;;;;;5113671;28;20445;-71
2021/06/11 13:03:52;;;;;;;3.43;2.90;;;;;;;;;;5114053;28;20410;-70
2021/06/11 13:06:18;;;;;;;2.77;2.57;;;;;;;;;;5117547;28;20438;-71
2021/06/11 13:08:47;;;;;;;3.40;3.10;;;;;;;;;;5122041;28;20930;-72
2021/06/11 13:11:13;;;;;;;4.83;3.00;;;;;;;;;;5113732;28;20425;-70
2021/06/11 13:13:40;;;;;;;3.20;2.90;;;;;;;;;;5114286;28;20478;-70
2021/06/11 13:16:07;;;;;;;2.60;1.80;;;;;;;;;;5114283;28;20827;-70
2021/06/11 13:18:34;;;;;;;1.93;1.83;;;;;;;;;;5113872;28;20446;-70
2021/06/11 13:21:00;;;;;;;3.80;2.10;;;;;;;;;;5114195;28;20410;-70
2021/06/11 13:23:27;;;;;;;2.37;2.17;;;;;;;;;;5113417;28;20447;-70
2021/06/11 13:25:55;;;;;;;2.00;1.90;;;;;;;;;;5113750;28;20471;-70
2021/06/11 13:28:22;;;;;;;2.50;2.20;;;;;;;;;;5114065;28;20521;-70
2021/06/11 13:30:49;;;;;;;2.00;1.90;;;;;;;;;;5113697;28;20852;-70
2021/06/11 13:33:22;;;;;;;2.20;2.10;;;;;;;;;;5114100;28;20539;-71
2021/06/11 13:35:49;;;;;;;2.00;1.80;;;;;;;;;;5115457;28;20429;-72
2021/06/11 13:38:16;;;;;;;1.97;1.87;;;;;;;;;;5134163;28;20522;-70
2021/06/11 13:40:43;;;;;;;2.00;1.80;;;;;;;;;;5134418;28;20465;-70
2021/06/11 13:43:11;;;;;;;2.37;2.17;;;;;;;;;;5133911;28;20448;-70
2021/06/11 13:45:38;;;;;;;3.33;1.67;;;;;;;;;;5134487;28;20423;-70
2021/06/11 13:48:05;;;;;;;1.83;1.73;;;;;;;;;;5136106;27;20456;-70
2021/06/11 13:50:32;;;;;;;2.33;1.50;;;;;;;;;;5137734;27;20464;-71
2021/06/11 13:52:59;;;;;;;1.40;1.30;;;;;;;;;;5137176;27;20469;-70
2021/06/11 13:55:26;;;;;;;2.03;1.70;;;;;;;;;;5137429;27;20432;-70
2021/06/11 13:57:53;;;;;;;1.80;1.67;;;;;;;;;;5137390;27;20534;-70
2021/06/11 14:00:22;;;;;;;1.80;1.67;;;;;;;;;;5136979;27;20450;-69
2021/06/11 14:02:49;;;;;;;2.13;1.93;;;;;;;;;;5137857;27;20436;-68
2021/06/11 14:05:16;;;;;;;1.53;1.43;;;;;;;;;;5137723;27;20521;-69
2021/06/11 14:07:42;;;;;;;4.00;1.97;;;;;;;;;;5119986;27;20809;-69
2021/06/11 14:10:10;;;;;;;1.80;1.43;;;;;;;;;;5117436;28;20955;-68
2021/06/11 14:12:37;;;;;;;2.03;1.77;;;;;;;;;;5116768;28;20981;-68
2021/06/11 14:15:04;;;;;;;2.00;1.80;;;;;;;;;;5117169;28;20528;-69
2021/06/11 14:17:32;;;;;;;1.80;1.70;;;;;;;;;;5116934;28;20521;-68
2021/06/11 14:19:59;;;;;;;2.00;1.90;;;;;;;;;;5116657;28;20479;-68
2021/06/11 14:22:25;;;;;;;1.90;1.80;;;;;;;;;;5116478;28;20930;-69
2021/06/11 14:24:52;;;;;;;4.13;1.63;;;;;;;;;;5116170;28;20523;-68
2021/06/11 14:27:19;;;;;;;3.40;1.97;;;;;;;;;;5116704;28;20493;-68